Time;durP1;ratioP1;P1;durP2;ratioP2;P2;SDS_P1;SDS_P2;PMS_P1;PMS_P2;Temp;Humidity;BMP_temperature;BMP_pressure;BME280_temperature;BME280_humidity;BME280_pressure;Samples;Min_cycle;Max_cycle;Signal;HPM_P1;HPM_P2
2022/03/07 00:01:34;;;;;;;7.05;6.25;;;3.80;90.40;;;3.76;nan;101391.13;5030551;28;20213;-67
2022/03/07 00:04:05;;;;;;;8.88;5.68;;;3.70;90.80;;;3.72;nan;101399.03;5030925;28;20214;-67
2022/03/07 00:06:32;;;;;;;11.30;6.90;;;3.60;91.40;;;3.74;nan;101400.66;5016642;28;20233;-67
2022/03/07 00:08:59;;;;;;;8.70;7.78;;;3.70;91.70;;;3.76;nan;101398.03;5011912;28;20210;-69
2022/03/07 00:11:28;;;;;;;8.40;7.60;;;3.70;92.10;;;3.69;nan;101401.69;5015108;28;20205;-68
2022/03/07 00:13:55;;;;;;;10.82;8.52;;;3.60;92.70;;;3.81;nan;101407.31;4988426;28;20198;-67
2022/03/07 00:16:22;;;;;;;8.77;7.30;;;3.70;93.20;;;3.77;nan;101408.31;5002475;28;20211;-67
2022/03/07 00:18:49;;;;;;;5.10;3.20;;;3.70;93.40;;;3.80;nan;101407.38;5015433;28;20210;-68
2022/03/07 00:21:16;;;;;;;9.18;6.95;;;3.70;93.70;;;3.75;nan;101409.22;5012319;28;20198;-67
2022/03/07 00:23:43;;;;;;;10.80;7.95;;;3.60;94.10;;;3.65;nan;101400.94;5017982;28;20622;-68
2022/03/07 00:26:10;;;;;;;11.88;8.73;;;3.60;94.50;;;3.62;nan;101403.63;5027418;28;20218;-68
2022/03/07 00:28:37;;;;;;;11.75;7.45;;;3.50;94.90;;;3.61;nan;101401.94;5016920;28;20658;-67
2022/03/07 00:31:06;;;;;;;10.10;7.10;;;3.60;95.20;;;3.61;nan;101408.84;5018530;28;20206;-67
2022/03/07 00:33:34;;;;;;;14.68;7.47;;;3.50;95.50;;;3.72;nan;101404.19;5010920;28;20226;-67
2022/03/07 00:36:01;;;;;;;10.57;7.68;;;3.60;95.60;;;3.73;nan;101411.03;5013580;28;20207;-67
2022/03/07 00:38:28;;;;;;;9.98;7.95;;;3.60;95.90;;;3.65;nan;101408.69;5032084;28;20208;-67
2022/03/07 00:40:55;;;;;;;11.07;8.70;;;3.50;96.10;;;3.66;nan;101412.13;5031231;28;20206;-67
2022/03/07 00:43:22;;;;;;;12.73;7.70;;;3.60;96.20;;;3.71;nan;101416.25;5011827;28;20231;-67
2022/03/07 00:45:50;;;;;;;14.77;9.18;;;3.60;96.40;;;3.67;nan;101406.91;5022801;28;20248;-67
2022/03/07 00:48:18;;;;;;;11.07;8.38;;;3.60;96.10;;;3.66;nan;101409.56;5030579;28;20198;-67
2022/03/07 00:50:51;;;;;;;14.75;7.90;;;3.60;96.50;;;3.57;nan;101414.97;5029952;28;20279;-67
2022/03/07 00:53:21;;;;;;;13.07;8.25;;;3.50;96.70;;;3.55;nan;101409.03;5014260;28;20695;-67
2022/03/07 00:55:50;;;;;;;11.07;8.77;;;3.50;97.20;;;3.65;nan;101408.69;5002717;28;20694;-67
2022/03/07 00:58:17;;;;;;;5.10;3.65;;;3.50;97.10;;;3.61;nan;101417.44;5010373;28;20745;-67
2022/03/07 01:00:44;;;;;;;10.40;8.60;;;3.60;97.00;;;3.68;nan;101412.94;5012376;28;20237;-67
2022/03/07 01:03:15;;;;;;;6.13;4.68;;;3.60;97.40;;;3.52;nan;101417.69;5011369;28;20257;-67
2022/03/07 01:05:46;;;;;;;4.97;3.55;;;3.50;97.40;;;3.62;nan;101420.88;5011297;28;20210;-67
2022/03/07 01:08:14;;;;;;;12.43;6.05;;;3.50;97.80;;;3.57;nan;101414.97;5012976;28;20218;-67
2022/03/07 01:10:42;;;;;;;4.30;3.35;;;3.50;97.60;;;3.56;nan;101408.97;5009077;28;20194;-67
2022/03/07 01:13:09;;;;;;;4.65;3.92;;;3.50;97.80;;;3.46;nan;101404.16;5009898;28;20234;-67
2022/03/07 01:15:36;;;;;;;9.85;5.60;;;3.40;98.20;;;3.46;nan;101417.91;5010588;28;20210;-67
2022/03/07 01:18:04;;;;;;;7.97;6.13;;;3.40;98.10;;;3.43;nan;101414.56;5031243;28;20190;-67
2022/03/07 01:20:32;;;;;;;8.82;5.50;;;3.30;98.10;;;3.48;nan;101412.69;5030864;28;20627;-67
2022/03/07 01:22:59;;;;;;;3.00;2.70;;;3.30;98.40;;;3.29;nan;101414.13;5030597;28;20233;-67
2022/03/07 01:25:26;;;;;;;8.90;5.93;;;3.30;98.60;;;3.27;nan;101406.44;5030900;28;20205;-67
2022/03/07 01:27:53;;;;;;;7.38;5.57;;;3.20;98.60;;;3.34;nan;101414.84;5030176;28;20232;-67
2022/03/07 01:30:21;;;;;;;8.43;6.63;;;3.20;98.40;;;3.35;nan;101404.47;5028778;28;20667;-68
2022/03/07 01:32:48;;;;;;;8.77;6.75;;;3.30;98.50;;;3.26;nan;101409.06;5028523;28;20233;-67
2022/03/07 01:35:15;;;;;;;8.32;6.90;;;3.20;98.40;;;3.23;nan;101404.84;5030296;28;20217;-67
2022/03/07 01:37:42;;;;;;;2.60;2.40;;;3.20;98.60;;;3.23;nan;101396.25;5012746;28;20400;-67
2022/03/07 01:40:10;;;;;;;7.68;6.13;;;3.20;98.70;;;3.26;nan;101401.34;5004247;28;20210;-67
2022/03/07 01:42:37;;;;;;;4.65;4.25;;;3.20;98.60;;;3.31;nan;101407.19;5007337;28;20226;-67
2022/03/07 01:45:19;;;;;;;6.22;5.30;;;3.20;98.40;;;3.36;nan;101406.16;4989654;28;20195;-67
2022/03/07 01:47:48;;;;;;;5.03;4.53;;;3.30;98.30;;;3.24;nan;101405.69;4991006;28;20254;-67
2022/03/07 01:50:19;;;;;;;5.40;3.90;;;3.20;98.00;;;3.15;nan;101407.63;5009707;28;20575;-67
2022/03/07 01:52:50;;;;;;;7.38;5.80;;;3.10;98.10;;;3.23;nan;101391.94;5016797;28;20695;-67
2022/03/07 01:55:18;;;;;;;5.32;4.07;;;3.10;98.00;;;3.21;nan;101400.63;5009068;28;20210;-67
2022/03/07 01:57:46;;;;;;;5.82;4.50;;;3.10;97.70;;;3.13;nan;101393.94;4992765;28;20203;-67
2022/03/07 02:00:18;;;;;;;7.07;5.20;;;3.00;97.70;;;3.12;nan;101389.69;5010317;28;20241;-67
2022/03/07 02:02:45;;;;;;;4.78;4.38;;;3.00;97.70;;;3.07;nan;101401.00;5010526;28;20741;-67
2022/03/07 02:05:14;;;;;;;3.50;2.65;;;3.00;98.00;;;3.02;nan;101393.41;5010095;28;20220;-67
2022/03/07 02:07:41;;;;;;;2.67;2.30;;;2.90;97.70;;;3.11;nan;101398.28;4995520;28;20219;-67
2022/03/07 02:10:10;;;;;;;4.05;3.47;;;3.00;97.60;;;3.09;nan;101401.81;4999872;28;20222;-67
2022/03/07 02:12:38;;;;;;;6.07;3.88;;;3.00;97.60;;;2.96;nan;101395.34;5005567;28;20242;-67
2022/03/07 02:15:07;;;;;;;5.00;4.35;;;2.90;97.90;;;2.95;nan;101401.38;5041370;28;20198;-68
2022/03/07 02:17:35;;;;;;;6.80;2.85;;;2.90;97.80;;;3.02;nan;101406.28;5028756;28;20666;-67
2022/03/07 02:20:04;;;;;;;5.47;5.07;;;2.90;98.00;;;2.98;nan;101401.28;5011372;28;20210;-67
2022/03/07 02:22:31;;;;;;;5.32;4.82;;;3.00;98.00;;;2.98;nan;101393.56;5029749;28;20244;-67
2022/03/07 02:24:58;;;;;;;3.63;3.33;;;2.90;98.10;;;2.83;nan;101405.13;5013699;28;20586;-67
2022/03/07 02:27:25;;;;;;;4.20;3.80;;;2.80;98.40;;;2.84;nan;101396.50;5010338;28;20226;-67
2022/03/07 02:29:52;;;;;;;4.30;2.42;;;2.70;98.80;;;2.74;nan;101400.25;5021747;28;20198;-67
2022/03/07 02:32:20;;;;;;;5.90;5.40;;;2.70;99.10;;;2.84;nan;101399.09;5028751;28;20221;-69
2022/03/07 02:34:48;;;;;;;5.30;4.60;;;2.70;99.30;;;2.86;nan;101394.75;5029648;28;20194;-67
2022/03/07 02:37:15;;;;;;;4.30;3.90;;;2.80;98.80;;;2.80;nan;101401.78;5025823;28;20663;-67
2022/03/07 02:39:42;;;;;;;3.05;2.78;;;2.70;99.00;;;2.79;nan;101393.22;5027581;28;20202;-67
2022/03/07 02:42:29;;;;;;;2.15;1.95;;;2.70;98.70;;;2.73;nan;101408.84;5016165;28;20226;-67
2022/03/07 02:44:56;;;;;;;2.92;2.50;;;2.70;98.40;;;2.71;nan;101404.63;5009612;28;20211;-67
2022/03/07 02:47:23;;;;;;;5.03;4.25;;;2.70;98.40;;;2.75;nan;101401.91;4993481;28;20235;-67
2022/03/07 02:49:50;;;;;;;4.68;4.20;;;2.70;98.30;;;2.68;nan;101403.00;5002074;28;20921;-67
2022/03/07 02:52:17;;;;;;;3.65;3.35;;;2.60;98.00;;;2.70;nan;101397.78;5009837;28;20223;-68
2022/03/07 02:54:44;;;;;;;3.97;2.65;;;2.60;97.70;;;2.65;nan;101418.53;5011873;28;20202;-67
2022/03/07 02:57:11;;;;;;;3.85;3.47;;;2.60;97.30;;;2.66;nan;101402.16;5006934;28;20206;-67
2022/03/07 02:59:38;;;;;;;3.65;3.35;;;2.60;96.80;;;2.60;nan;101398.94;5012982;28;20211;-67
2022/03/07 03:02:05;;;;;;;3.10;2.80;;;2.60;97.00;;;2.72;nan;101406.31;5014356;28;20643;-67
2022/03/07 03:04:34;;;;;;;3.00;2.67;;;2.60;96.70;;;2.69;nan;101412.41;5012457;28;20221;-67
2022/03/07 03:07:01;;;;;;;1.27;1.20;;;2.60;96.20;;;2.64;nan;101403.94;5012211;28;20234;-67
2022/03/07 03:09:28;;;;;;;1.95;1.85;;;2.60;95.10;;;2.56;nan;101408.47;4993348;28;20200;-66
2022/03/07 03:11:55;;;;;;;2.75;2.38;;;2.50;94.90;;;2.48;nan;101418.13;5004151;28;20224;-67
2022/03/07 03:14:22;;;;;;;4.00;2.60;;;2.40;94.90;;;2.48;nan;101410.41;5009038;28;20205;-67
2022/03/07 03:16:51;;;;;;;3.92;3.25;;;2.50;94.60;;;2.41;nan;101406.28;5032924;28;20288;-67
2022/03/07 03:19:20;;;;;;;2.30;2.10;;;2.40;94.90;;;2.36;nan;101408.16;5031952;28;20205;-67
2022/03/07 03:24:17;;;;;;;1.75;0.93;;;2.30;94.60;;;2.38;nan;101402.97;5004584;28;20215;-67
2022/03/07 03:26:44;;;;;;;3.00;2.70;;;2.30;94.60;;;2.26;nan;101412.69;4992545;28;20447;-67
2022/03/07 03:29:11;;;;;;;3.80;3.60;;;2.30;94.40;;;2.26;nan;101401.53;5013802;28;20272;-66
2022/03/07 03:31:38;;;;;;;3.50;3.20;;;2.20;94.40;;;2.26;nan;101407.53;5012484;28;20234;-66
2022/03/07 03:34:05;;;;;;;2.92;2.75;;;2.20;94.10;;;2.14;nan;101412.16;5011908;28;20305;-67
2022/03/07 03:36:32;;;;;;;1.98;1.80;;;2.10;93.80;;;2.10;nan;101421.69;4995187;28;20230;-64
2022/03/07 03:38:59;;;;;;;2.65;2.47;;;2.10;94.00;;;2.11;nan;101419.94;4995672;28;20211;-65
2022/03/07 03:41:26;;;;;;;2.40;1.20;;;2.10;94.10;;;1.85;nan;101417.16;5012369;28;20207;-67
2022/03/07 03:43:53;;;;;;;1.70;1.48;;;2.00;93.90;;;1.95;nan;101419.50;4994605;28;20230;-64
2022/03/07 03:46:20;;;;;;;2.58;2.38;;;1.90;94.00;;;1.93;nan;101416.09;5012690;28;20202;-64
2022/03/07 03:48:47;;;;;;;3.50;3.20;;;1.90;94.40;;;2.07;nan;101416.59;5011431;28;20214;-65
2022/03/07 03:51:14;;;;;;;1.15;1.05;;;2.00;94.00;;;1.89;nan;101426.50;5003135;28;20265;-66
2022/03/07 03:53:41;;;;;;;3.05;1.90;;;1.90;93.70;;;1.92;nan;101432.41;5002966;28;20222;-65
2022/03/07 03:56:08;;;;;;;1.05;1.05;;;1.90;93.90;;;1.89;nan;101417.06;5012678;28;20258;-67
2022/03/07 03:58:35;;;;;;;2.33;2.22;;;1.90;93.90;;;2.00;nan;101427.09;4994754;28;20218;-67
2022/03/07 04:01:03;;;;;;;1.00;0.95;;;2.00;93.90;;;1.86;nan;101429.13;5012246;28;20733;-64
2022/03/07 04:03:30;;;;;;;2.55;2.35;;;1.90;93.70;;;1.87;nan;101433.41;5013563;28;20230;-64
2022/03/07 04:05:57;;;;;;;2.45;2.35;;;1.90;94.00;;;1.96;nan;101433.22;5011939;28;20257;-65
2022/03/07 04:08:24;;;;;;;1.70;1.60;;;1.90;93.60;;;1.89;nan;101434.22;5009624;28;20234;-64
2022/03/07 04:10:52;;;;;;;3.50;3.20;;;1.90;93.80;;;1.92;nan;101432.41;4991157;28;20211;-64
2022/03/07 04:13:19;;;;;;;1.67;1.27;;;1.90;94.00;;;2.05;nan;101438.13;5010454;28;20228;-66
2022/03/07 04:15:47;;;;;;;3.70;3.40;;;1.90;93.80;;;1.93;nan;101444.41;5010842;28;20199;-68
2022/03/07 04:18:14;;;;;;;1.83;1.75;;;1.90;93.70;;;1.85;nan;101446.34;5010834;28;20202;-65
2022/03/07 04:20:42;;;;;;;0.70;0.70;;;1.90;93.60;;;1.81;nan;101444.69;4992752;28;20218;-64
2022/03/07 04:23:09;;;;;;;4.20;3.72;;;1.80;93.20;;;1.92;nan;101447.84;4977855;28;20233;-67
2022/03/07 04:25:36;;;;;;;2.83;2.53;;;1.80;93.20;;;1.79;nan;101446.44;4992682;28;20205;-65
2022/03/07 04:28:04;;;;;;;1.38;1.27;;;1.80;93.00;;;1.78;nan;101449.06;4993083;28;20265;-65
2022/03/07 04:30:32;;;;;;;1.80;1.70;;;1.70;93.00;;;1.54;nan;101443.59;5011742;28;20690;-67
2022/03/07 04:33:00;;;;;;;3.53;1.70;;;1.70;92.90;;;1.69;nan;101434.69;5010496;28;20218;-64
2022/03/07 04:35:27;;;;;;;3.33;3.13;;;1.60;93.10;;;1.73;nan;101445.75;5011330;28;20217;-66
2022/03/07 04:37:54;;;;;;;4.13;3.83;;;1.70;93.20;;;1.58;nan;101449.50;5010085;28;20202;-66
2022/03/07 04:40:21;;;;;;;2.55;2.35;;;1.60;93.20;;;1.61;nan;101462.31;5011009;28;20586;-67
2022/03/07 04:42:48;;;;;;;3.28;2.97;;;1.50;93.40;;;1.60;nan;101454.63;5009357;28;20226;-66
2022/03/07 04:45:15;;;;;;;3.63;2.33;;;1.50;93.40;;;1.69;nan;101464.69;5010429;28;20214;-65
2022/03/07 04:47:42;;;;;;;1.67;1.40;;;1.70;93.30;;;1.66;nan;101473.34;4992059;28;20302;-66
2022/03/07 04:50:12;;;;;;;1.52;1.50;;;1.60;93.20;;;1.68;nan;101466.44;5009893;28;20211;-66
2022/03/07 04:52:44;;;;;;;4.95;4.28;;;1.60;93.10;;;1.62;nan;101471.72;5004852;28;20231;-68
2022/03/07 04:55:12;;;;;;;2.85;2.65;;;1.60;93.40;;;1.65;nan;101468.22;5005387;28;20221;-69
2022/03/07 04:57:39;;;;;;;5.68;4.45;;;1.60;93.40;;;1.56;nan;101471.84;4993663;28;20218;-68
2022/03/07 05:00:10;;;;;;;5.00;3.60;;;1.60;93.10;;;1.43;nan;101465.25;5012122;28;20211;-67
2022/03/07 05:02:37;;;;;;;3.10;2.80;;;1.40;93.40;;;1.47;nan;101474.59;5011664;28;20233;-66
2022/03/07 05:05:04;;;;;;;5.25;3.40;;;1.40;93.60;;;1.43;nan;101478.13;5009379;28;20264;-67
2022/03/07 05:07:31;;;;;;;5.10;4.22;;;1.40;93.60;;;1.56;nan;101475.28;5009272;28;20706;-67
2022/03/07 05:09:58;;;;;;;1.25;1.15;;;1.50;93.40;;;1.46;nan;101473.78;4994106;28;20211;-65
2022/03/07 05:12:25;;;;;;;6.40;4.43;;;1.40;93.50;;;1.53;nan;101477.91;5010040;28;20222;-68
2022/03/07 05:14:52;;;;;;;1.65;1.55;;;1.50;93.40;;;1.56;nan;101485.56;4989749;28;20222;-65
2022/03/07 05:17:19;;;;;;;6.07;4.35;;;1.50;93.10;;;1.48;nan;101482.31;5011489;28;20206;-67
2022/03/07 05:19:47;;;;;;;2.38;2.22;;;1.40;93.10;;;1.45;nan;101492.66;5009841;28;20211;-65
2022/03/07 05:22:15;;;;;;;4.70;4.20;;;1.40;93.10;;;1.29;nan;101478.44;5009811;28;20229;-66
2022/03/07 05:24:42;;;;;;;3.10;2.60;;;1.30;93.10;;;1.46;nan;101491.78;5010715;28;20214;-67
2022/03/07 05:27:09;;;;;;;2.90;2.70;;;1.40;93.10;;;1.45;nan;101492.66;4992312;28;21703;-69
2022/03/07 05:29:37;;;;;;;3.47;2.22;;;1.40;93.00;;;1.48;nan;101487.47;4992775;28;20206;-67
2022/03/07 05:32:04;;;;;;;2.10;2.00;;;1.40;93.00;;;1.46;nan;101490.94;4988795;28;20762;-66
2022/03/07 05:34:31;;;;;;;5.95;4.57;;;1.40;93.10;;;1.46;nan;101496.06;4991684;28;20211;-68
2022/03/07 05:36:58;;;;;;;2.90;2.60;;;1.40;93.20;;;1.43;nan;101488.41;5002994;28;20655;-68
2022/03/07 05:39:25;;;;;;;2.13;2.00;;;1.40;93.10;;;1.53;nan;101489.94;4993355;28;20211;-65
2022/03/07 05:41:52;;;;;;;3.25;2.95;;;1.50;92.90;;;1.49;nan;101496.03;5008682;28;20213;-68
2022/03/07 05:44:19;;;;;;;1.63;1.52;;;1.50;92.90;;;1.38;nan;101488.53;5010175;28;20191;-65
2022/03/07 05:46:46;;;;;;;3.88;3.30;;;1.40;92.90;;;1.33;nan;101486.91;5009878;28;20218;-68
2022/03/07 05:49:13;;;;;;;1.88;1.35;;;1.30;93.10;;;1.26;nan;101491.34;5010202;28;20211;-67
2022/03/07 05:51:41;;;;;;;5.80;3.63;;;1.20;93.20;;;1.23;nan;101488.84;5009830;28;20203;-67
2022/03/07 05:54:08;;;;;;;4.47;3.05;;;1.20;93.70;;;1.30;nan;101492.97;5009053;28;20379;-66
2022/03/07 05:56:35;;;;;;;5.50;3.88;;;1.20;93.60;;;1.24;nan;101498.22;5005164;28;20585;-66
2022/03/07 05:59:02;;;;;;;6.40;4.10;;;1.10;93.70;;;1.29;nan;101495.56;4999457;28;20578;-65
2022/03/07 06:01:29;;;;;;;4.50;2.92;;;1.10;93.60;;;1.25;nan;101494.81;5006442;28;20686;-67
2022/03/07 06:03:56;;;;;;;6.25;3.97;;;1.10;93.60;;;1.25;nan;101506.81;5026879;28;20249;-67
2022/03/07 06:06:23;;;;;;;5.65;5.05;;;1.10;93.60;;;1.16;nan;101504.41;5011172;28;20203;-66
2022/03/07 06:08:50;;;;;;;3.63;2.75;;;1.10;93.70;;;1.26;nan;101500.75;4992805;28;20230;-66
2022/03/07 06:11:17;;;;;;;7.15;4.43;;;1.20;93.60;;;1.26;nan;101514.47;4999540;28;20569;-66
2022/03/07 06:13:44;;;;;;;4.80;3.45;;;1.10;93.60;;;1.23;nan;101509.41;5005305;28;20226;-67
2022/03/07 06:16:12;;;;;;;3.70;3.40;;;1.20;93.40;;;1.17;nan;101506.94;5011034;28;20194;-65
2022/03/07 06:18:39;;;;;;;5.43;3.90;;;1.10;93.20;;;1.17;nan;101506.94;5000085;28;20222;-66
2022/03/07 06:21:08;;;;;;;5.60;3.60;;;1.10;93.40;;;1.19;nan;101505.19;5013560;28;20210;-65
2022/03/07 06:23:36;;;;;;;5.38;4.38;;;1.10;93.40;;;1.23;nan;101511.97;5013620;28;20234;-66
2022/03/07 06:26:07;;;;;;;4.90;3.55;;;1.10;93.40;;;1.32;nan;101514.34;5014058;28;20207;-69
2022/03/07 06:28:34;;;;;;;3.80;3.45;;;1.20;92.90;;;1.38;nan;101519.41;5001814;28;20241;-64
2022/03/07 06:31:02;;;;;;;6.57;4.57;;;1.30;92.70;;;1.42;nan;101517.59;5009120;28;20191;-67
2022/03/07 06:33:29;;;;;;;3.22;2.55;;;1.40;92.50;;;1.49;nan;101525.13;5013239;28;20584;-67
2022/03/07 06:35:57;;;;;;;5.65;2.67;;;1.50;92.30;;;1.33;nan;101521.19;5014039;28;20711;-67
2022/03/07 06:38:24;;;;;;;1.65;1.45;;;1.50;91.60;;;1.49;nan;101522.56;5014019;28;20202;-65
2022/03/07 06:40:52;;;;;;;2.55;1.75;;;1.60;92.20;;;1.76;nan;101528.88;5013742;28;20237;-65
2022/03/07 06:43:18;;;;;;;6.75;5.00;;;1.70;91.90;;;1.98;nan;101532.66;5013496;28;20218;-67
2022/03/07 06:45:45;;;;;;;7.90;4.57;;;2.10;91.50;;;2.22;nan;101526.09;5013903;28;20203;-67
2022/03/07 06:48:13;;;;;;;4.43;3.83;;;2.30;90.80;;;2.53;nan;101539.94;5012784;28;20234;-66
2022/03/07 06:50:40;;;;;;;4.50;3.30;;;2.70;89.90;;;2.34;nan;101536.13;4964372;28;20211;-65
2022/03/07 06:53:07;;;;;;;3.45;1.38;;;2.70;86.30;;;2.36;nan;101537.75;4994967;28;20591;-66
2022/03/07 06:55:34;;;;;;;5.15;3.75;;;2.50;86.20;;;2.37;nan;101541.19;4993376;28;20205;-66
2022/03/07 06:58:01;;;;;;;6.55;4.20;;;2.50;86.50;;;3.13;nan;101546.06;5012910;28;20211;-65
2022/03/07 07:00:28;;;;;;;6.22;5.18;;;3.30;85.30;;;4.06;nan;101543.41;5013378;28;20218;-68
2022/03/07 07:02:55;;;;;;;7.70;5.90;;;4.60;78.50;;;4.74;nan;101549.78;5013315;28;20227;-66
2022/03/07 07:05:23;;;;;;;5.68;4.30;;;5.30;73.80;;;5.39;nan;101550.91;4996534;28;20260;-68
2022/03/07 07:07:50;;;;;;;6.30;4.60;;;6.00;67.70;;;5.75;nan;101553.91;5012486;28;20246;-67
2022/03/07 07:10:20;;;;;;;4.97;3.63;;;6.60;64.80;;;6.19;nan;101555.69;4978846;28;20202;-67
2022/03/07 07:12:49;;;;;;;5.30;4.20;;;6.70;63.50;;;5.53;nan;101562.53;5001294;28;20234;-68
2022/03/07 07:15:16;;;;;;;8.05;5.80;;;6.10;62.60;;;5.79;nan;101552.06;5012583;28;20210;-68
2022/03/07 07:17:44;;;;;;;5.55;4.43;;;6.30;62.70;;;6.04;nan;101545.91;5012095;28;20206;-65
2022/03/07 07:20:12;;;;;;;2.78;2.47;;;6.50;62.30;;;5.06;nan;101551.28;4993054;28;20236;-66
2022/03/07 07:22:40;;;;;;;5.00;3.05;;;6.00;62.60;;;5.20;nan;101557.66;5010724;28;20237;-68
2022/03/07 07:25:09;;;;;;;3.80;2.97;;;5.70;63.50;;;5.35;nan;101561.44;4994915;28;20675;-68
2022/03/07 07:27:37;;;;;;;3.50;1.73;;;5.80;63.80;;;4.91;nan;101564.72;4978326;28;20226;-66
2022/03/07 07:30:07;;;;;;;3.88;2.85;;;5.70;62.40;;;4.51;nan;101572.97;4996168;28;20207;-67
2022/03/07 07:32:36;;;;;;;5.55;4.35;;;5.40;62.40;;;4.71;nan;101571.41;4994422;28;20231;-69
2022/03/07 07:35:04;;;;;;;8.88;6.13;;;5.20;63.70;;;4.40;nan;101564.69;4995103;28;20703;-66
2022/03/07 07:37:31;;;;;;;6.05;4.50;;;4.90;63.80;;;4.36;nan;101563.13;5011081;28;20202;-67
2022/03/07 07:39:58;;;;;;;8.52;5.82;;;4.60;64.40;;;4.60;nan;101570.06;5009813;28;20210;-65
2022/03/07 07:42:25;;;;;;;7.32;5.82;;;4.90;65.00;;;4.85;nan;101559.78;5012189;28;20229;-68
2022/03/07 07:44:51;;;;;;;2.60;2.40;;;5.20;64.00;;;4.58;nan;101574.44;5012531;28;20195;-66
2022/03/07 07:47:18;;;;;;;1.85;1.65;;;5.10;63.10;;;4.65;nan;101565.59;5012605;28;20265;-68
2022/03/07 07:49:45;;;;;;;7.32;4.55;;;5.10;63.40;;;5.04;nan;101568.59;4993824;28;20202;-68
2022/03/07 07:52:12;;;;;;;7.80;6.03;;;5.50;63.30;;;5.65;nan;101572.44;5010878;28;20506;-66
2022/03/07 07:54:39;;;;;;;2.65;1.50;;;6.20;61.80;;;5.57;nan;101584.81;5010866;28;20206;-65
2022/03/07 07:57:07;;;;;;;9.90;5.40;;;6.10;60.80;;;7.43;nan;101588.53;5011684;28;20210;-69
2022/03/07 07:59:34;;;;;;;9.43;6.20;;;7.90;58.00;;;8.60;nan;101584.81;4994177;28;20206;-68
2022/03/07 08:02:07;;;;;;;7.60;6.73;;;9.50;53.50;;;9.65;nan;101590.66;4993508;28;20281;-70
2022/03/07 08:04:34;;;;;;;7.47;6.73;;;10.40;50.70;;;9.81;nan;101583.75;4974931;28;20663;-67
2022/03/07 08:07:02;;;;;;;4.17;2.50;;;11.00;48.20;;;10.10;nan;101596.03;5007239;28;21028;-67
2022/03/07 08:09:29;;;;;;;12.33;7.30;;;11.10;46.80;;;9.10;nan;101590.09;5003106;28;21048;-69
2022/03/07 08:11:56;;;;;;;7.40;4.40;;;10.20;47.30;;;7.99;nan;101591.16;5011010;28;20645;-66
2022/03/07 08:14:23;;;;;;;7.77;6.90;;;9.30;48.20;;;7.51;nan;101586.44;5007590;28;20691;-67
2022/03/07 08:16:50;;;;;;;7.90;4.30;;;8.40;49.80;;;7.41;nan;101595.56;5007585;28;20641;-66
2022/03/07 08:19:17;;;;;;;6.57;5.27;;;8.40;50.40;;;7.70;nan;101595.94;5000661;28;21238;-70
2022/03/07 08:21:47;;;;;;;6.73;5.20;;;8.30;50.70;;;7.56;nan;101593.09;4988739;28;21270;-68
2022/03/07 08:24:14;;;;;;;6.73;4.53;;;8.70;49.40;;;8.05;nan;101596.09;5009655;28;21141;-66
2022/03/07 08:26:41;;;;;;;8.10;6.77;;;8.80;49.60;;;9.50;nan;101594.94;5004231;28;20692;-70
2022/03/07 08:29:08;;;;;;;7.40;6.40;;;10.30;48.10;;;10.85;nan;101589.16;4991047;28;21232;-70
2022/03/07 08:31:35;;;;;;;10.03;5.67;;;11.90;44.80;;;12.44;nan;101603.72;5010972;28;20625;-66
2022/03/07 08:34:02;;;;;;;7.33;5.40;;;13.50;42.90;;;12.37;nan;101596.38;4992395;28;20661;-69
2022/03/07 08:36:32;;;;;;;5.17;4.07;;;13.60;41.30;;;13.53;nan;101591.16;5012290;28;20629;-65
2022/03/07 08:38:59;;;;;;;9.70;8.33;;;15.20;39.60;;;15.37;nan;101588.06;5001965;28;20669;-67
2022/03/07 08:41:27;;;;;;;10.80;8.30;;;17.10;37.50;;;15.60;nan;101609.13;5010411;28;21012;-67
2022/03/07 08:43:55;;;;;;;7.97;6.67;;;18.40;35.00;;;17.18;nan;101597.97;5009007;28;20661;-66
2022/03/07 08:46:24;;;;;;;9.57;8.17;;;19.50;34.00;;;17.26;nan;101592.88;5009856;28;20656;-65
2022/03/07 08:48:51;;;;;;;9.33;7.57;;;19.90;33.20;;;16.93;nan;101602.66;5009500;28;20719;-65
2022/03/07 08:51:19;;;;;;;10.60;5.97;;;19.60;32.60;;;16.44;nan;101604.97;5002192;28;20625;-66
2022/03/07 08:53:46;;;;;;;3.53;2.87;;;19.10;32.70;;;14.36;nan;101594.88;4997448;28;20656;-65
2022/03/07 08:56:14;;;;;;;8.90;6.17;;;17.60;32.80;;;16.64;nan;101604.22;5008968;28;20700;-67
2022/03/07 08:58:52;;;;;;;10.10;6.50;;;18.90;33.00;;;14.22;nan;101603.72;4995348;28;20614;-69
2022/03/07 09:01:20;;;;;;;7.60;6.83;;;17.30;32.90;;;12.74;nan;101592.19;4992223;28;20641;-67
2022/03/07 09:03:47;;;;;;;6.80;5.67;;;14.80;35.30;;;10.33;nan;101597.44;4989231;28;20665;-66
2022/03/07 09:06:14;;;;;;;4.17;2.80;;;12.40;37.50;;;9.26;nan;101602.25;4991693;28;20637;-65
2022/03/07 09:08:41;;;;;;;8.83;5.10;;;10.80;39.70;;;8.99;nan;101597.59;5008905;28;20677;-67
2022/03/07 09:11:08;;;;;;;2.57;2.30;;;10.80;40.70;;;9.74;nan;101605.84;5005993;28;21018;-70
2022/03/07 09:13:35;;;;;;;6.40;4.50;;;12.00;39.20;;;11.25;nan;101599.84;5006350;28;20665;-68
2022/03/07 09:16:02;;;;;;;3.30;2.30;;;12.60;38.90;;;10.53;nan;101600.59;4990879;28;20633;-69
2022/03/07 09:18:30;;;;;;;4.60;3.10;;;12.80;37.90;;;10.66;nan;101596.34;4993046;28;20634;-70
2022/03/07 09:20:57;;;;;;;5.03;2.83;;;12.80;38.10;;;11.69;nan;101611.16;5008666;28;20645;-69
2022/03/07 09:23:27;;;;;;;4.37;2.90;;;14.20;37.20;;;11.20;nan;101620.22;5033479;23;20728;-66
2022/03/07 09:25:54;;;;;;;4.37;2.57;;;14.80;36.00;;;9.90;nan;101609.31;5040221;28;20617;-66
2022/03/07 09:28:21;;;;;;;6.57;4.30;;;13.10;37.10;;;11.14;nan;101603.09;5024800;28;21001;-66
2022/03/07 09:30:48;;;;;;;2.53;1.87;;;13.60;37.40;;;11.91;nan;101603.66;5044583;28;20639;-64
2022/03/07 09:33:15;;;;;;;21.00;7.00;;;14.90;36.30;;;12.06;nan;101605.31;5037603;28;20676;-65
2022/03/07 09:35:42;;;;;;;27.00;11.77;;;15.30;35.10;;;11.32;nan;101601.19;5018753;28;20628;-65
2022/03/07 09:38:09;;;;;;;1.87;1.50;;;13.90;36.00;;;10.84;nan;101605.72;5024400;28;20640;-67
2022/03/07 09:40:36;;;;;;;3.90;2.47;;;13.40;37.40;;;10.83;nan;101618.88;5020826;28;20659;-67
2022/03/07 09:43:03;;;;;;;6.23;5.60;;;13.00;37.30;;;11.31;nan;101604.72;5025765;28;20671;-65
2022/03/07 09:45:30;;;;;;;5.90;4.90;;;13.60;36.70;;;14.23;nan;101599.28;5028424;28;20629;-65
2022/03/07 09:47:58;;;;;;;6.80;5.37;;;17.90;33.90;;;16.42;nan;101606.06;5028098;28;20632;-67
2022/03/07 09:50:25;;;;;;;9.87;8.30;;;20.00;32.40;;;18.86;nan;101610.34;5025388;28;21213;-67
2022/03/07 09:52:54;;;;;;;7.13;5.50;;;22.60;30.10;;;18.54;nan;101603.53;5044539;28;20636;-67
2022/03/07 09:55:24;;;;;;;9.27;8.33;;;22.60;28.90;;;20.71;nan;101605.72;5024005;28;20632;-65
2022/03/07 09:57:51;;;;;;;6.13;3.90;;;24.20;29.00;;;17.91;nan;101613.66;5029323;28;20635;-65
2022/03/07 10:00:19;;;;;;;9.87;7.70;;;22.80;28.00;;;19.16;nan;101596.94;5028887;28;20631;-67
2022/03/07 10:02:58;;;;;;;8.43;7.10;;;22.90;28.70;;;21.32;nan;101611.00;5026173;28;20644;-67
2022/03/07 10:05:33;;;;;;;8.17;7.37;;;25.00;28.00;;;20.18;nan;101602.16;5027988;28;21058;-67
2022/03/07 10:08:00;;;;;;;7.83;6.00;;;23.50;28.10;;;20.23;nan;101605.19;5025246;28;20636;-67
2022/03/07 10:10:34;;;;;;;9.43;7.90;;;24.30;27.80;;;22.33;nan;101603.03;5043640;28;20656;-67
2022/03/07 10:13:14;;;;;;;12.87;5.37;;;26.00;27.40;;;20.47;nan;101591.38;5010663;28;20657;-67
2022/03/07 10:15:42;;;;;;;8.63;7.83;;;25.40;26.70;;;21.47;nan;101609.44;5026078;28;20609;-67
2022/03/07 10:18:17;;;;;;;9.00;6.50;;;25.50;27.40;;;19.62;nan;101598.78;5040074;28;20643;-66
2022/03/07 10:21:04;;;;;;;5.93;4.70;;;24.60;27.10;;;20.32;nan;101598.16;5044282;28;20645;-67
2022/03/07 10:23:31;;;;;;;7.93;7.13;;;24.00;27.30;;;20.62;nan;101587.19;5029610;28;21266;-67
2022/03/07 10:26:09;;;;;;;4.93;3.03;;;24.80;27.20;;;22.39;nan;101585.59;5036113;28;20623;-67
2022/03/07 10:28:41;;;;;;;6.20;3.17;;;26.90;26.60;;;18.44;nan;101593.94;5044049;28;20660;-67
2022/03/07 10:31:17;;;;;;;10.20;7.13;;;22.90;27.30;;;16.33;nan;101582.13;5042540;28;20609;-65
2022/03/07 10:33:46;;;;;;;10.30;9.20;;;20.40;29.10;;;19.80;nan;101589.94;5025766;28;21122;-67
2022/03/07 10:36:14;;;;;;;9.10;8.20;;;22.50;28.60;;;21.82;nan;101587.25;5029007;28;20625;-67
2022/03/07 10:38:43;;;;;;;9.60;8.17;;;24.90;27.50;;;22.42;nan;101580.75;5019619;28;20650;-67
2022/03/07 10:41:10;;;;;;;9.07;8.17;;;27.30;26.80;;;22.49;nan;101585.44;5023590;28;20621;-67